Time;durP1;ratioP1;P1;durP2;ratioP2;P2;SDS_P1;SDS_P2;PMS_P1;PMS_P2;Temp;Humidity;BMP_temperature;BMP_pressure;BME280_temperature;BME280_humidity;BME280_pressure;Samples;Min_cycle;Max_cycle;Signal;HPM_P1;HPM_P2
2021/03/26 00:01:49;;;;;;;11.70;5.57;;;;;;;;;;5058700;28;20108;-89
2021/03/26 00:04:15;;;;;;;9.30;4.63;;;;;;;;;;5091949;28;20040;-90
2021/03/26 00:06:43;;;;;;;10.13;5.63;;;;;;;;;;5075435;28;20043;-90
2021/03/26 00:09:11;;;;;;;15.10;5.57;;;;;;;;;;5074908;28;20040;-90
2021/03/26 00:11:37;;;;;;;13.35;5.82;;;;;;;;;;5075160;28;20033;-90
2021/03/26 00:14:03;;;;;;;15.48;5.40;;;;;;;;;;5075123;28;20035;-88
2021/03/26 00:16:29;;;;;;;14.02;5.43;;;;;;;;;;5074985;28;20119;-89
2021/03/26 00:18:55;;;;;;;10.57;5.30;;;;;;;;;;5057847;28;20127;-89
2021/03/26 00:21:22;;;;;;;12.10;5.43;;;;;;;;;;5058081;28;20101;-89
2021/03/26 00:23:48;;;;;;;11.90;5.60;;;;;;;;;;5091429;28;20054;-89
2021/03/26 00:26:14;;;;;;;13.40;5.57;;;;;;;;;;5091233;28;20475;-89
2021/03/26 00:28:40;;;;;;;10.10;5.25;;;;;;;;;;5091229;28;20040;-88
2021/03/26 00:31:06;;;;;;;10.18;5.35;;;;;;;;;;5091282;28;20043;-89
2021/03/26 00:33:32;;;;;;;13.02;5.55;;;;;;;;;;5076343;28;20036;-89
2021/03/26 00:35:58;;;;;;;11.95;5.97;;;;;;;;;;5095259;28;20495;-88
2021/03/26 00:38:26;;;;;;;12.55;4.88;;;;;;;;;;5062128;28;20078;-89
2021/03/26 00:40:52;;;;;;;8.80;4.97;;;;;;;;;;5078665;28;20047;-88
2021/03/26 00:43:19;;;;;;;15.82;6.07;;;;;;;;;;5078313;28;20044;-88
2021/03/26 00:45:45;;;;;;;13.52;5.32;;;;;;;;;;5078030;28;20109;-88
2021/03/26 00:48:11;;;;;;;11.90;5.35;;;;;;;;;;5094913;28;20125;-87
2021/03/26 00:50:39;;;;;;;11.23;5.15;;;;;;;;;;5078092;28;20040;-87
2021/03/26 00:53:06;;;;;;;11.38;4.90;;;;;;;;;;5094787;28;20116;-88
2021/03/26 00:55:32;;;;;;;13.93;5.80;;;;;;;;;;5077959;28;20040;-88
2021/03/26 00:57:58;;;;;;;15.02;6.15;;;;;;;;;;5078328;28;20040;-88
2021/03/26 01:00:25;;;;;;;14.25;5.55;;;;;;;;;;5094925;28;20075;-88
2021/03/26 01:02:51;;;;;;;13.38;5.38;;;;;;;;;;5077945;28;20127;-82
2021/03/26 01:05:27;;;;;;;11.38;4.68;;;;;;;;;;5077937;28;20036;-88
2021/03/26 01:45:01;;;;;;;12.35;3.80;;;;;;;;;;5102878;28;20046;-88
2021/03/26 01:47:28;;;;;;;12.30;4.47;;;;;;;;;;5080984;28;20047;-88
2021/03/26 01:49:55;;;;;;;12.40;4.20;;;;;;;;;;5080533;28;20035;-88
2021/03/26 01:52:21;;;;;;;11.05;4.55;;;;;;;;;;5115884;28;20044;-89
2021/03/26 01:54:47;;;;;;;13.23;4.97;;;;;;;;;;5081270;28;20446;-89
2021/03/26 01:57:13;;;;;;;12.07;4.72;;;;;;;;;;5081015;28;20035;-90
2021/03/26 01:59:42;;;;;;;17.52;4.38;;;;;;;;;;5097894;28;20069;-90
2021/03/26 02:02:12;;;;;;;8.32;3.90;;;;;;;;;;5098337;28;20471;-90
2021/03/26 02:04:43;;;;;;;9.65;4.10;;;;;;;;;;5097711;28;20032;-89
2021/03/26 02:07:09;;;;;;;9.30;4.25;;;;;;;;;;5080996;28;20567;-90
2021/03/26 02:09:37;;;;;;;12.57;4.60;;;;;;;;;;5080557;28;20038;-90
2021/03/26 02:12:03;;;;;;;9.82;4.75;;;;;;;;;;5115193;28;20063;-89
2021/03/26 02:14:34;;;;;;;11.52;4.45;;;;;;;;;;5115122;28;20111;-90
2021/03/26 02:17:00;;;;;;;11.35;5.07;;;;;;;;;;5097255;28;20044;-89
2021/03/26 02:19:38;;;;;;;11.23;4.75;;;;;;;;;;5080207;28;20059;-89
2021/03/26 02:22:04;;;;;;;9.15;4.70;;;;;;;;;;5096917;28;20088;-90
2021/03/26 02:24:30;;;;;;;9.70;4.60;;;;;;;;;;5079687;28;20187;-89
2021/03/26 02:27:13;;;;;;;8.65;4.45;;;;;;;;;;5080058;28;20161;-90
2021/03/26 02:29:39;;;;;;;12.40;5.03;;;;;;;;;;5096870;28;20066;-89
2021/03/26 02:32:11;;;;;;;15.43;5.43;;;;;;;;;;5079855;28;20122;-89
2021/03/26 02:34:37;;;;;;;13.55;5.40;;;;;;;;;;5096580;28;20089;-86
2021/03/26 02:37:07;;;;;;;14.02;6.03;;;;;;;;;;5080538;28;20047;-89
2021/03/26 02:39:33;;;;;;;14.50;6.35;;;;;;;;;;5079809;28;20126;-88
2021/03/26 02:42:00;;;;;;;14.20;6.28;;;;;;;;;;5096507;28;20051;-89
2021/03/26 02:44:39;;;;;;;14.32;7.20;;;;;;;;;;5096351;28;20498;-91
2021/03/26 02:47:10;;;;;;;14.88;6.90;;;;;;;;;;5115095;28;20046;-86
2021/03/26 02:49:41;;;;;;;14.82;6.70;;;;;;;;;;5079686;28;20043;-88
2021/03/26 02:52:07;;;;;;;16.50;7.47;;;;;;;;;;5095952;28;20039;-88
2021/03/26 02:54:43;;;;;;;17.40;7.93;;;;;;;;;;5114109;28;20118;-88
2021/03/26 02:57:11;;;;;;;22.40;7.70;;;;;;;;;;5095281;28;20038;-87
2021/03/26 02:59:55;;;;;;;17.83;8.45;;;;;;;;;;5095889;28;20437;-87
2021/03/26 03:02:21;;;;;;;19.95;8.63;;;;;;;;;;5095702;28;20039;-87
2021/03/26 03:05:08;;;;;;;17.80;8.38;;;;;;;;;;5095737;28;20100;-87
2021/03/26 03:07:36;;;;;;;19.30;8.73;;;;;;;;;;5113456;28;20478;-88
2021/03/26 03:10:09;;;;;;;17.48;8.45;;;;;;;;;;5078958;28;20028;-87
2021/03/26 03:12:36;;;;;;;17.10;8.93;;;;;;;;;;5078737;28;20036;-87
2021/03/26 03:15:06;;;;;;;20.80;9.95;;;;;;;;;;5078668;28;20036;-87
2021/03/26 03:17:44;;;;;;;24.67;11.65;;;;;;;;;;5095428;28;20178;-87
2021/03/26 03:20:17;;;;;;;23.02;11.10;;;;;;;;;;5095197;28;20402;-87
2021/03/26 03:22:52;;;;;;;27.45;11.50;;;;;;;;;;5095669;28;20040;-88
2021/03/26 03:25:22;;;;;;;26.58;11.57;;;;;;;;;;5078352;28;20096;-87
2021/03/26 03:28:09;;;;;;;21.25;12.00;;;;;;;;;;5094980;28;20044;-87
2021/03/26 03:30:41;;;;;;;27.15;12.55;;;;;;;;;;5078723;28;20135;-88
2021/03/26 03:33:11;;;;;;;24.40;12.80;;;;;;;;;;5113272;28;20031;-88
2021/03/26 03:35:48;;;;;;;24.08;11.57;;;;;;;;;;5078271;28;20498;-88
2021/03/26 03:38:23;;;;;;;25.48;12.93;;;;;;;;;;5078344;28;20406;-88
2021/03/26 03:40:52;;;;;;;28.13;12.75;;;;;;;;;;5095350;28;20486;-88
2021/03/26 03:43:23;;;;;;;27.40;13.43;;;;;;;;;;5095184;28;20571;-88
2021/03/26 03:45:51;;;;;;;31.10;13.93;;;;;;;;;;5078003;28;20078;-88
2021/03/26 03:48:27;;;;;;;31.15;14.48;;;;;;;;;;5078225;28;20118;-88
2021/03/26 03:50:57;;;;;;;32.88;13.52;;;;;;;;;;5095422;28;20096;-88
2021/03/26 03:53:24;;;;;;;31.77;14.50;;;;;;;;;;5113122;28;20038;-89
2021/03/26 03:55:52;;;;;;;33.10;14.45;;;;;;;;;;5095122;28;20429;-88
2021/03/26 03:58:20;;;;;;;27.55;14.60;;;;;;;;;;5078299;28;20043;-89
2021/03/26 04:01:01;;;;;;;33.33;14.63;;;;;;;;;;5078291;28;20073;-89
2021/03/26 04:03:27;;;;;;;30.88;14.93;;;;;;;;;;5094829;28;20071;-88
2021/03/26 04:06:06;;;;;;;28.58;14.90;;;;;;;;;;5094786;28;20043;-89
2021/03/26 04:08:33;;;;;;;31.55;15.50;;;;;;;;;;5112189;28;20207;-88
2021/03/26 04:11:32;;;;;;;29.77;15.70;;;;;;;;;;5095206;28;20043;-87
2021/03/26 04:14:15;;;;;;;32.88;15.30;;;;;;;;;;5099212;28;20136;-88
2021/03/26 04:16:42;;;;;;;34.92;16.75;;;;;;;;;;5077860;28;20043;-87
2021/03/26 04:19:19;;;;;;;33.30;15.48;;;;;;;;;;5094819;28;20031;-88
2021/03/26 04:21:45;;;;;;;31.60;15.48;;;;;;;;;;5077893;28;20463;-88
2021/03/26 04:24:19;;;;;;;32.58;16.27;;;;;;;;;;5094652;28;20039;-88
2021/03/26 04:26:47;;;;;;;38.70;16.88;;;;;;;;;;5094572;28;20036;-87
2021/03/26 04:29:16;;;;;;;37.30;16.70;;;;;;;;;;5094575;28;20036;-88
2021/03/26 04:31:45;;;;;;;32.42;17.05;;;;;;;;;;5112505;28;20043;-88
2021/03/26 04:34:11;;;;;;;37.08;16.75;;;;;;;;;;5094200;28;20067;-87
2021/03/26 04:36:41;;;;;;;33.33;18.17;;;;;;;;;;5094599;28;20483;-87
2021/03/26 04:39:08;;;;;;;31.80;15.63;;;;;;;;;;5095176;28;20057;-87
2021/03/26 04:41:36;;;;;;;35.10;16.80;;;;;;;;;;5060526;28;20067;-87
2021/03/26 04:44:05;;;;;;;35.45;18.70;;;;;;;;;;5094123;28;20542;-87
2021/03/26 04:47:00;;;;;;;40.28;16.92;;;;;;;;;;5094127;28;20287;-87
2021/03/26 04:49:37;;;;;;;37.78;18.00;;;;;;;;;;5081242;28;20052;-88
2021/03/26 04:52:06;;;;;;;34.28;16.63;;;;;;;;;;5094546;28;20092;-87
2021/03/26 04:54:51;;;;;;;33.28;16.50;;;;;;;;;;5077250;28;20040;-87
2021/03/26 04:57:19;;;;;;;34.47;17.25;;;;;;;;;;5094201;28;20032;-88
2021/03/26 04:59:56;;;;;;;32.50;16.35;;;;;;;;;;5112241;28;20054;-87
2021/03/26 05:02:22;;;;;;;32.13;15.82;;;;;;;;;;5093996;28;20131;-87
2021/03/26 05:04:48;;;;;;;33.60;15.70;;;;;;;;;;5077190;28;20128;-87
2021/03/26 05:07:15;;;;;;;33.60;16.40;;;;;;;;;;5077330;28;20035;-87
2021/03/26 05:09:42;;;;;;;31.35;15.70;;;;;;;;;;5094133;28;20460;-88
2021/03/26 05:12:10;;;;;;;30.02;16.08;;;;;;;;;;5094676;28;20082;-89
2021/03/26 05:14:52;;;;;;;31.13;15.93;;;;;;;;;;5077434;28;20067;-89
2021/03/26 05:17:22;;;;;;;34.07;17.67;;;;;;;;;;5112452;28;20084;-89
2021/03/26 05:19:57;;;;;;;31.20;15.10;;;;;;;;;;5062722;28;20289;-89
2021/03/26 05:22:52;;;;;;;34.95;16.02;;;;;;;;;;5081137;28;20038;-89
2021/03/26 05:25:18;;;;;;;32.30;15.40;;;;;;;;;;5084633;28;20056;-88
2021/03/26 05:27:45;;;;;;;31.80;15.65;;;;;;;;;;5115682;28;20088;-88
2021/03/26 05:30:11;;;;;;;32.13;15.23;;;;;;;;;;5097746;28;20063;-88
2021/03/26 05:32:44;;;;;;;31.88;15.23;;;;;;;;;;5097911;28;20043;-88
2021/03/26 05:35:21;;;;;;;30.85;15.43;;;;;;;;;;5080642;28;20084;-87
2021/03/26 05:37:52;;;;;;;31.15;16.23;;;;;;;;;;5097528;28;20042;-87
2021/03/26 05:40:21;;;;;;;29.30;14.88;;;;;;;;;;5097498;28;20123;-87
2021/03/26 05:42:49;;;;;;;34.42;15.73;;;;;;;;;;5097196;28;20067;-87
2021/03/26 05:45:27;;;;;;;31.83;15.60;;;;;;;;;;5080119;28;20075;-87
2021/03/26 05:48:05;;;;;;;29.33;14.10;;;;;;;;;;5096939;28;20040;-87
2021/03/26 05:51:04;;;;;;;29.52;14.65;;;;;;;;;;5097321;28;20036;-87
2021/03/26 05:53:36;;;;;;;29.77;15.00;;;;;;;;;;5081687;28;20444;-87
2021/03/26 05:56:07;;;;;;;29.90;15.73;;;;;;;;;;5097233;28;20038;-87
2021/03/26 05:58:51;;;;;;;33.65;16.75;;;;;;;;;;5080080;28;20039;-87
2021/03/26 06:01:30;;;;;;;34.60;15.75;;;;;;;;;;5114900;28;20380;-87
2021/03/26 06:04:03;;;;;;;34.65;16.42;;;;;;;;;;5114950;28;20042;-87
2021/03/26 06:06:42;;;;;;;36.05;17.13;;;;;;;;;;5080043;28;20035;-87
2021/03/26 06:09:33;;;;;;;35.00;16.38;;;;;;;;;;5096801;28;20558;-88
2021/03/26 06:12:18;;;;;;;31.20;16.35;;;;;;;;;;5117655;28;20043;-88
2021/03/26 06:14:56;;;;;;;32.53;15.82;;;;;;;;;;5114847;28;20161;-88
2021/03/26 06:17:31;;;;;;;34.28;16.85;;;;;;;;;;5096907;28;20043;-88
2021/03/26 06:20:03;;;;;;;40.33;18.17;;;;;;;;;;5096666;28;20040;-87
2021/03/26 06:22:48;;;;;;;36.33;18.02;;;;;;;;;;5096584;28;20113;-87
2021/03/26 06:25:20;;;;;;;39.20;17.85;;;;;;;;;;5096812;28;20043;-87
2021/03/26 06:28:05;;;;;;;40.33;18.25;;;;;;;;;;5096842;28;20040;-88
2021/03/26 06:30:33;;;;;;;33.08;16.45;;;;;;;;;;5113984;28;20036;-87
2021/03/26 06:33:05;;;;;;;35.10;18.60;;;;;;;;;;5079884;28;20043;-87
2021/03/26 06:35:45;;;;;;;39.47;17.27;;;;;;;;;;5096210;28;20043;-87
2021/03/26 06:38:18;;;;;;;37.95;18.40;;;;;;;;;;5079415;28;20039;-88
2021/03/26 06:40:53;;;;;;;40.95;18.77;;;;;;;;;;5114634;28;20039;-87
2021/03/26 06:43:38;;;;;;;40.97;18.63;;;;;;;;;;5096142;28;20031;-88
2021/03/26 06:46:23;;;;;;;44.38;19.02;;;;;;;;;;5114019;28;20079;-88
2021/03/26 06:48:51;;;;;;;41.55;19.50;;;;;;;;;;5114200;28;20043;-88
2021/03/26 06:51:19;;;;;;;41.80;19.05;;;;;;;;;;5114318;28;20399;-87
2021/03/26 06:54:16;;;;;;;39.97;18.48;;;;;;;;;;5096978;28;20040;-91
2021/03/26 06:56:51;;;;;;;38.33;19.98;;;;;;;;;;5101884;28;20046;-92
2021/03/26 06:59:31;;;;;;;38.55;18.25;;;;;;;;;;5114957;28;20039;-91
2021/03/26 07:02:07;;;;;;;40.05;19.15;;;;;;;;;;5096674;28;20054;-91
2021/03/26 07:04:59;;;;;;;46.00;19.25;;;;;;;;;;5096854;28;20034;-91
2021/03/26 07:07:45;;;;;;;44.00;19.23;;;;;;;;;;5091154;28;20047;-92
2021/03/26 07:10:20;;;;;;;43.60;19.45;;;;;;;;;;5096678;28;20043;-91
2021/03/26 07:12:46;;;;;;;47.25;20.48;;;;;;;;;;5080243;28;20058;-94
2021/03/26 07:15:24;;;;;;;47.67;20.48;;;;;;;;;;5079818;28;20122;-90
2021/03/26 07:18:09;;;;;;;45.33;19.58;;;;;;;;;;5098643;28;20044;-94
2021/03/26 07:21:03;;;;;;;47.17;20.15;;;;;;;;;;5087488;28;20050;-94
2021/03/26 07:23:52;;;;;;;40.35;19.65;;;;;;;;;;5079474;28;20120;-89
2021/03/26 07:26:37;;;;;;;45.03;18.92;;;;;;;;;;5074445;28;20165;-89
2021/03/26 07:31:57;;;;;;;43.15;17.95;;;;;;;;;;5114629;28;20539;-92
2021/03/26 07:34:30;;;;;;;41.72;19.52;;;;;;;;;;5082356;28;20031;-94
2021/03/26 07:37:03;;;;;;;43.90;20.70;;;;;;;;;;5081154;28;20066;-93
2021/03/26 07:39:35;;;;;;;44.67;19.95;;;;;;;;;;5103578;28;20044;-94
2021/03/26 07:42:12;;;;;;;46.08;20.52;;;;;;;;;;5100050;28;20137;-90
2021/03/26 07:44:41;;;;;;;44.65;20.00;;;;;;;;;;5077142;28;20096;-90
2021/03/26 07:47:17;;;;;;;45.67;19.83;;;;;;;;;;5076123;28;20044;-93
2021/03/26 07:49:50;;;;;;;45.03;20.05;;;;;;;;;;5094600;28;20040;-93
2021/03/26 07:52:31;;;;;;;47.95;19.92;;;;;;;;;;5075840;28;20036;-91
2021/03/26 07:54:59;;;;;;;45.63;20.52;;;;;;;;;;5076028;28;20051;-92
2021/03/26 07:57:29;;;;;;;49.00;20.65;;;;;;;;;;5092488;28;20039;-92
2021/03/26 08:00:07;;;;;;;52.33;22.05;;;;;;;;;;5094736;28;20074;-93
2021/03/26 08:02:36;;;;;;;49.70;22.95;;;;;;;;;;5095492;28;20052;-92
2021/03/26 08:05:13;;;;;;;50.63;21.55;;;;;;;;;;5059021;28;20078;-92
2021/03/26 08:07:51;;;;;;;52.28;22.67;;;;;;;;;;5075819;28;20494;-89
2021/03/26 08:10:17;;;;;;;49.15;22.40;;;;;;;;;;5092580;28;20043;-87
2021/03/26 08:12:49;;;;;;;57.95;25.15;;;;;;;;;;5095071;28;20036;-96
2021/03/26 08:15:35;;;;;;;52.78;22.83;;;;;;;;;;5094386;28;20036;-93
2021/03/26 08:18:01;;;;;;;52.78;22.33;;;;;;;;;;5092454;28;20040;-93
2021/03/26 08:20:29;;;;;;;49.08;23.00;;;;;;;;;;5092379;28;20388;-92
2021/03/26 08:22:55;;;;;;;49.90;22.95;;;;;;;;;;5092355;28;20172;-94
2021/03/26 08:25:25;;;;;;;51.20;23.60;;;;;;;;;;5075592;28;20064;-92
2021/03/26 08:27:55;;;;;;;54.00;23.20;;;;;;;;;;5077479;28;20051;-92
2021/03/26 08:30:24;;;;;;;55.42;23.83;;;;;;;;;;5077003;28;20036;-92
2021/03/26 08:33:05;;;;;;;51.70;22.58;;;;;;;;;;5075466;28;20040;-94
2021/03/26 08:35:44;;;;;;;53.08;23.73;;;;;;;;;;5058741;28;20050;-92
2021/03/26 08:38:16;;;;;;;53.25;22.70;;;;;;;;;;5091613;28;20056;-92
2021/03/26 08:40:51;;;;;;;54.88;24.00;;;;;;;;;;5093204;28;20066;-92
2021/03/26 08:43:17;;;;;;;50.85;22.58;;;;;;;;;;5075508;28;20554;-91
2021/03/26 08:45:45;;;;;;;51.72;23.35;;;;;;;;;;5087319;28;20496;-92
2021/03/26 08:48:30;;;;;;;50.90;24.48;;;;;;;;;;5078903;28;20092;-91
2021/03/26 08:51:08;;;;;;;48.28;23.23;;;;;;;;;;5095821;28;20040;-96
2021/03/26 08:53:34;;;;;;;43.53;21.25;;;;;;;;;;5094239;28;20040;-94
2021/03/26 08:56:34;;;;;;;52.40;22.75;;;;;;;;;;5072498;28;20044;-95
2021/03/26 08:59:21;;;;;;;47.53;21.60;;;;;;;;;;5063619;28;20123;-92
2021/03/26 09:02:06;;;;;;;47.67;21.58;;;;;;;;;;5040922;28;20105;-92
2021/03/26 09:04:37;;;;;;;50.33;21.90;;;;;;;;;;5057622;28;20041;-92
2021/03/26 09:07:10;;;;;;;44.17;21.10;;;;;;;;;;5057752;28;20044;-92
2021/03/26 09:09:38;;;;;;;;;;;;;;;;;;5084495;28;20044;-91
2021/03/26 09:12:15;;;;;;;41.92;19.73;;;;;;;;;;5077365;28;20327;-91
2021/03/26 09:14:51;;;;;;;44.40;20.20;;;;;;;;;;5044038;28;20155;-89
2021/03/26 09:17:28;;;;;;;41.97;21.27;;;;;;;;;;5057325;28;20048;-90
2021/03/26 09:19:56;;;;;;;38.92;18.02;;;;;;;;;;5040044;28;20045;-91
2021/03/26 09:22:39;;;;;;;40.47;19.23;;;;;;;;;;5039756;28;20087;-90
2021/03/26 09:25:18;;;;;;;40.58;18.42;;;;;;;;;;5056302;28;20040;-91
2021/03/26 09:27:48;;;;;;;41.67;20.23;;;;;;;;;;5081113;28;20052;-89
2021/03/26 09:30:31;;;;;;;39.13;19.23;;;;;;;;;;5076896;28;20054;-88
2021/03/26 09:32:57;;;;;;;;;;;;;;;;;;5095460;28;20064;-88
2021/03/26 09:35:23;;;;;;;35.28;19.02;;;;;;;;;;5076981;28;19916;-88
2021/03/26 09:37:53;;;;;;;35.25;17.92;;;;;;;;;;5092878;28;20055;-89
2021/03/26 09:40:26;;;;;;;35.83;18.73;;;;;;;;;;5109869;28;20134;-90
2021/03/26 09:42:54;;;;;;;36.35;18.23;;;;;;;;;;5095373;28;20078;-89
2021/03/26 09:45:33;;;;;;;31.33;16.92;;;;;;;;;;5088036;28;20101;-90
2021/03/26 09:48:02;;;;;;;30.38;16.20;;;;;;;;;;5087178;28;20047;-89
2021/03/26 09:50:31;;;;;;;32.28;15.70;;;;;;;;;;5094885;28;20155;-88
2021/03/26 09:52:57;;;;;;;31.98;16.60;;;;;;;;;;5097137;28;20100;-88
2021/03/26 09:55:33;;;;;;;29.02;17.25;;;;;;;;;;5113793;28;20062;-89
2021/03/26 09:58:04;;;;;;;27.33;16.13;;;;;;;;;;5097091;28;20044;-87
2021/03/26 10:00:32;;;;;;;;;;;;;;;;;;5115267;28;20054;-88
2021/03/26 10:03:04;;;;;;;26.63;15.35;;;;;;;;;;5099396;28;19919;-86
2021/03/26 10:05:48;;;;;;;28.73;14.83;;;;;;;;;;5110932;28;20089;-87
2021/03/26 10:08:50;;;;;;;25.60;13.85;;;;;;;;;;5095321;28;20308;-86
2021/03/26 10:11:17;;;;;;;25.80;14.57;;;;;;;;;;5096276;28;20383;-88
2021/03/26 10:13:45;;;;;;;26.02;13.93;;;;;;;;;;5113506;28;20042;-88
2021/03/26 10:16:11;;;;;;;23.17;14.35;;;;;;;;;;5113653;28;20031;-87
2021/03/26 10:18:45;;;;;;;26.17;14.10;;;;;;;;;;5096479;28;20048;-87
2021/03/26 10:21:21;;;;;;;18.80;12.10;;;;;;;;;;5079847;28;20500;-87
2021/03/26 10:23:57;;;;;;;22.83;12.52;;;;;;;;;;5113729;28;20160;-88
2021/03/26 10:26:42;;;;;;;24.90;13.68;;;;;;;;;;5113225;28;20035;-88
2021/03/26 10:29:16;;;;;;;25.20;14.15;;;;;;;;;;5113236;28;20046;-87
2021/03/26 10:31:43;;;;;;;21.60;12.85;;;;;;;;;;5112921;28;20388;-85
2021/03/26 10:34:09;;;;;;;19.25;12.60;;;;;;;;;;5096180;28;20096;-86
2021/03/26 10:36:52;;;;;;;20.08;11.60;;;;;;;;;;5096091;28;20067;-86
2021/03/26 10:39:18;;;;;;;;;;;;;;;;;;5096409;28;20054;-88
2021/03/26 10:42:05;;;;;;;21.52;10.95;;;;;;;;;;5114242;28;19915;-88
2021/03/26 10:44:40;;;;;;;19.30;11.18;;;;;;;;;;5112488;28;20055;-87
2021/03/26 10:47:13;;;;;;;21.63;9.95;;;;;;;;;;5095790;28;20104;-86
2021/03/26 10:49:44;;;;;;;18.83;10.45;;;;;;;;;;5112675;28;20048;-87
2021/03/26 10:52:25;;;;;;;15.97;9.87;;;;;;;;;;5114026;28;20067;-88
2021/03/26 10:54:52;;;;;;;15.80;8.38;;;;;;;;;;5112583;28;20059;-88
2021/03/26 10:57:37;;;;;;;14.60;8.95;;;;;;;;;;5096097;28;20441;-89
2021/03/26 11:00:22;;;;;;;17.65;7.97;;;;;;;;;;5113677;28;20036;-88
2021/03/26 11:03:01;;;;;;;16.65;8.20;;;;;;;;;;5112658;28;20051;-87
2021/03/26 11:05:31;;;;;;;15.60;7.97;;;;;;;;;;5078750;28;20043;-86
2021/03/26 11:08:00;;;;;;;15.52;8.15;;;;;;;;;;5096023;28;20035;-87
2021/03/26 11:10:27;;;;;;;16.38;7.57;;;;;;;;;;5114342;28;20067;-87
2021/03/26 11:13:01;;;;;;;14.02;7.65;;;;;;;;;;5097731;28;20040;-88
2021/03/26 11:15:28;;;;;;;14.63;7.90;;;;;;;;;;5093136;28;20036;-87
2021/03/26 11:17:57;;;;;;;8.90;6.05;;;;;;;;;;5091438;28;20373;-87
2021/03/26 11:20:29;;;;;;;9.95;6.32;;;;;;;;;;5091900;28;20036;-88
2021/03/26 11:22:57;;;;;;;9.18;6.00;;;;;;;;;;5091982;28;20523;-89
2021/03/26 11:25:31;;;;;;;11.35;6.30;;;;;;;;;;5091932;28;20040;-87
2021/03/26 11:27:57;;;;;;;12.23;6.55;;;;;;;;;;5093077;28;20060;-89
2021/03/26 11:30:23;;;;;;;12.18;6.88;;;;;;;;;;5075196;28;20109;-89
2021/03/26 11:33:03;;;;;;;14.77;6.78;;;;;;;;;;5092115;28;20115;-89
2021/03/26 11:35:29;;;;;;;15.00;6.80;;;;;;;;;;5075054;28;20121;-87
2021/03/26 11:37:56;;;;;;;16.42;7.63;;;;;;;;;;5074864;28;20046;-88
2021/03/26 11:40:24;;;;;;;11.82;6.70;;;;;;;;;;5091671;28;20472;-87
2021/03/26 11:42:51;;;;;;;15.45;6.70;;;;;;;;;;5092616;28;20693;-88
2021/03/26 11:45:17;;;;;;;10.10;5.80;;;;;;;;;;5091197;28;20067;-87
2021/03/26 11:47:43;;;;;;;12.50;7.38;;;;;;;;;;5091413;28;20047;-88
2021/03/26 11:50:17;;;;;;;15.75;8.00;;;;;;;;;;5091382;28;20548;-87
2021/03/26 11:52:45;;;;;;;11.50;6.72;;;;;;;;;;5074574;28;20089;-87
2021/03/26 11:55:15;;;;;;;10.73;6.43;;;;;;;;;;5091592;28;20036;-85
2021/03/26 11:57:54;;;;;;;11.82;6.10;;;;;;;;;;5090914;28;20123;-87
2021/03/26 12:00:26;;;;;;;14.20;7.05;;;;;;;;;;5074623;28;20036;-88
2021/03/26 12:03:01;;;;;;;13.07;6.88;;;;;;;;;;5092229;28;20032;-87
2021/03/26 12:05:46;;;;;;;15.75;7.22;;;;;;;;;;5074800;28;20427;-88
2021/03/26 12:08:31;;;;;;;9.70;5.93;;;;;;;;;;5091299;28;20046;-90
2021/03/26 12:11:00;;;;;;;14.38;6.05;;;;;;;;;;5092332;28;20096;-85
2021/03/26 12:13:28;;;;;;;15.73;7.10;;;;;;;;;;5091251;28;20044;-87
2021/03/26 12:16:14;;;;;;;14.27;8.00;;;;;;;;;;5074159;28;20040;-87
2021/03/26 12:18:45;;;;;;;12.48;6.95;;;;;;;;;;5074108;28;20047;-86
2021/03/26 12:21:18;;;;;;;13.75;6.18;;;;;;;;;;5090903;28;20573;-86
2021/03/26 12:23:49;;;;;;;11.52;6.22;;;;;;;;;;5090934;28;20040;-87
2021/03/26 12:26:24;;;;;;;12.20;6.57;;;;;;;;;;5090616;28;20043;-86
2021/03/26 12:28:54;;;;;;;14.82;7.03;;;;;;;;;;5092405;28;20127;-85
2021/03/26 12:31:35;;;;;;;13.32;7.13;;;;;;;;;;5094762;28;20122;-86
2021/03/26 12:34:21;;;;;;;12.57;6.80;;;;;;;;;;5095126;28;20032;-85
2021/03/26 12:36:49;;;;;;;11.43;6.90;;;;;;;;;;5074975;28;20086;-85
2021/03/26 12:39:29;;;;;;;10.20;6.85;;;;;;;;;;5094839;28;20073;-86
2021/03/26 12:42:04;;;;;;;12.23;6.43;;;;;;;;;;5094882;28;20036;-86
2021/03/26 12:44:32;;;;;;;14.00;6.75;;;;;;;;;;5101425;28;20055;-86
2021/03/26 12:47:16;;;;;;;11.63;5.75;;;;;;;;;;5116266;28;20073;-86
2021/03/26 12:49:52;;;;;;;12.05;5.63;;;;;;;;;;5097809;28;20394;-86
2021/03/26 12:52:30;;;;;;;9.48;5.65;;;;;;;;;;5081258;28;20040;-86
2021/03/26 12:55:08;;;;;;;11.40;5.10;;;;;;;;;;5097798;28;20046;-86
2021/03/26 12:57:53;;;;;;;10.52;5.30;;;;;;;;;;5097888;28;20039;-86
2021/03/26 13:00:19;;;;;;;8.98;4.30;;;;;;;;;;5097914;28;20043;-86
2021/03/26 13:02:59;;;;;;;10.07;4.57;;;;;;;;;;5115969;28;20063;-86
2021/03/26 13:05:28;;;;;;;10.98;4.40;;;;;;;;;;5097945;28;20043;-86
2021/03/26 13:07:54;;;;;;;7.10;3.97;;;;;;;;;;5097715;28;20035;-83
2021/03/26 13:10:23;;;;;;;9.10;4.35;;;;;;;;;;5115797;28;20040;-87
2021/03/26 13:12:49;;;;;;;9.98;5.07;;;;;;;;;;5097532;28;20039;-87
2021/03/26 13:15:17;;;;;;;8.18;4.50;;;;;;;;;;5081139;28;20368;-88
2021/03/26 13:17:43;;;;;;;9.55;4.93;;;;;;;;;;5081019;28;20044;-89
2021/03/26 13:20:13;;;;;;;10.00;4.30;;;;;;;;;;5080723;28;20047;-86
2021/03/26 13:22:46;;;;;;;8.85;4.40;;;;;;;;;;5080922;28;20044;-86
2021/03/26 13:25:47;;;;;;;8.55;4.57;;;;;;;;;;5098246;28;20039;-89
2021/03/26 13:28:18;;;;;;;10.55;4.40;;;;;;;;;;5016262;28;20084;-84
2021/03/26 13:31:01;;;;;;;11.85;4.40;;;;;;;;;;5086817;28;20086;-85
2021/03/26 13:33:33;;;;;;;9.18;5.05;;;;;;;;;;5095670;28;20479;-84
2021/03/26 13:36:06;;;;;;;9.95;4.13;;;;;;;;;;5115264;28;20092;-85
2021/03/26 13:38:36;;;;;;;10.98;4.15;;;;;;;;;;5080622;28;20048;-85
2021/03/26 13:41:03;;;;;;;7.15;3.97;;;;;;;;;;5114542;28;20085;-84
2021/03/26 13:43:33;;;;;;;9.40;4.20;;;;;;;;;;5097292;28;20040;-85
2021/03/26 13:46:01;;;;;;;8.27;3.92;;;;;;;;;;5096828;28;20043;-85
2021/03/26 13:48:28;;;;;;;6.88;4.22;;;;;;;;;;5096862;28;20040;-84
2021/03/26 13:51:02;;;;;;;9.18;3.90;;;;;;;;;;5096904;28;20040;-85
2021/03/26 13:53:34;;;;;;;9.77;4.47;;;;;;;;;;5096861;28;20089;-85
2021/03/26 13:56:12;;;;;;;9.50;4.03;;;;;;;;;;5096856;28;20398;-85
2021/03/26 13:58:51;;;;;;;8.20;3.60;;;;;;;;;;5079864;28;20470;-85
2021/03/26 14:01:20;;;;;;;5.60;3.40;;;;;;;;;;5079808;28;20039;-86
2021/03/26 14:03:49;;;;;;;6.68;3.55;;;;;;;;;;5096514;28;20036;-85
2021/03/26 14:06:24;;;;;;;5.72;3.42;;;;;;;;;;5114747;28;20093;-85
2021/03/26 14:08:53;;;;;;;7.22;3.45;;;;;;;;;;5096454;28;20062;-85
2021/03/26 14:11:28;;;;;;;8.90;3.40;;;;;;;;;;5114562;28;20101;-85
2021/03/26 14:13:54;;;;;;;5.82;3.10;;;;;;;;;;5114607;28;20038;-85
2021/03/26 14:16:21;;;;;;;9.75;3.75;;;;;;;;;;5114502;28;20115;-85
2021/03/26 14:18:59;;;;;;;6.57;3.53;;;;;;;;;;5079558;28;20447;-85
2021/03/26 14:21:45;;;;;;;5.57;3.17;;;;;;;;;;5096356;28;20028;-85
2021/03/26 14:24:14;;;;;;;7.13;3.47;;;;;;;;;;5082887;28;20056;-85
2021/03/26 14:26:48;;;;;;;7.18;3.72;;;;;;;;;;5096250;28;20139;-85
2021/03/26 14:29:14;;;;;;;6.10;3.40;;;;;;;;;;5096005;28;20493;-85
2021/03/26 14:31:44;;;;;;;9.13;3.75;;;;;;;;;;5095978;28;20118;-84
2021/03/26 14:34:23;;;;;;;8.43;3.40;;;;;;;;;;5079184;28;20051;-85
2021/03/26 14:37:02;;;;;;;8.60;3.20;;;;;;;;;;5079921;27;20055;-83
2021/03/26 14:39:29;;;;;;;6.03;3.47;;;;;;;;;;5116395;27;20480;-83
2021/03/26 14:41:58;;;;;;;7.57;3.92;;;;;;;;;;5116410;27;20070;-83
2021/03/26 14:44:26;;;;;;;7.38;3.40;;;;;;;;;;5116031;27;20049;-83
2021/03/26 14:46:57;;;;;;;7.55;3.63;;;;;;;;;;5134563;27;20058;-83
2021/03/26 14:49:26;;;;;;;6.13;3.30;;;;;;;;;;5134329;27;20035;-83
2021/03/26 14:51:54;;;;;;;8.10;3.30;;;;;;;;;;5115485;27;20488;-83
2021/03/26 14:54:23;;;;;;;7.20;3.58;;;;;;;;;;5098790;27;20051;-83
2021/03/26 14:57:08;;;;;;;5.18;3.40;;;;;;;;;;5134122;27;20046;-83
2021/03/26 14:59:38;;;;;;;11.48;3.58;;;;;;;;;;5134429;27;20061;-83
2021/03/26 15:02:04;;;;;;;12.98;3.80;;;;;;;;;;5098651;27;20104;-83
2021/03/26 15:04:39;;;;;;;6.38;3.30;;;;;;;;;;5115931;27;20051;-83
2021/03/26 15:07:07;;;;;;;8.40;3.88;;;;;;;;;;5116034;27;20043;-83
2021/03/26 15:09:33;;;;;;;5.47;3.28;;;;;;;;;;5115802;27;20088;-83
2021/03/26 15:12:05;;;;;;;9.45;3.33;;;;;;;;;;5133963;27;20031;-83
2021/03/26 15:14:50;;;;;;;7.65;3.80;;;;;;;;;;5115750;27;20037;-83
2021/03/26 15:17:16;;;;;;;6.50;3.28;;;;;;;;;;5133888;27;20035;-83
2021/03/26 15:19:46;;;;;;;7.18;3.53;;;;;;;;;;5115277;27;20061;-83
2021/03/26 15:22:12;;;;;;;6.63;3.40;;;;;;;;;;5115552;27;20424;-83
2021/03/26 15:24:42;;;;;;;6.40;3.60;;;;;;;;;;5133673;27;20046;-83
2021/03/26 15:27:27;;;;;;;7.32;3.55;;;;;;;;;;5115481;27;20130;-84
2021/03/26 15:30:08;;;;;;;8.63;3.72;;;;;;;;;;5133577;27;20480;-83
2021/03/26 15:32:35;;;;;;;7.15;3.38;;;;;;;;;;5115463;27;20035;-83
2021/03/26 15:35:06;;;;;;;8.65;3.88;;;;;;;;;;5133659;27;20039;-83
2021/03/26 15:37:34;;;;;;;5.78;3.33;;;;;;;;;;5115368;27;20035;-84
2021/03/26 15:40:02;;;;;;;8.60;3.88;;;;;;;;;;5115574;27;20051;-84
2021/03/26 15:42:33;;;;;;;7.45;3.60;;;;;;;;;;5115316;27;20100;-83